createdAt,value
2018-03-29T00:01:01.738Z,69.64
2018-03-29T00:03:32.697Z,69.44
2018-03-29T00:08:40.705Z,69.80
2018-03-29T00:11:11.727Z,69.61
2018-03-29T00:13:42.745Z,69.62
2018-03-29T00:16:13.772Z,69.91
2018-03-29T00:18:44.756Z,70.02
2018-03-29T00:21:15.761Z,69.81
2018-03-29T00:23:46.773Z,69.59
2018-03-29T00:26:17.788Z,69.37
2018-03-29T00:28:48.773Z,68.64
2018-03-29T00:31:19.751Z,67.97
2018-03-29T00:33:50.753Z,67.45
2018-03-29T00:36:21.753Z,66.96
2018-03-29T00:38:52.784Z,66.91
2018-03-29T00:41:23.753Z,66.99
2018-03-29T00:43:54.736Z,67.11
2018-03-29T00:46:25.723Z,66.79
2018-03-29T00:48:56.679Z,66.67
2018-03-29T00:51:27.661Z,66.37
2018-03-29T00:53:58.634Z,65.91
2018-03-29T00:56:29.644Z,65.84
2018-03-29T00:59:00.604Z,65.51
2018-03-29T01:01:31.573Z,64.56
2018-03-29T01:04:02.617Z,63.52
2018-03-29T01:06:33.569Z,63.60
2018-03-29T01:09:04.573Z,63.77
2018-03-29T01:11:35.522Z,63.88
2018-03-29T01:14:06.564Z,63.84
2018-03-29T01:16:37.565Z,63.49
2018-03-29T01:19:08.589Z,63.10
2018-03-29T01:21:39.624Z,62.54
2018-03-29T01:24:10.588Z,62.47
2018-03-29T01:26:41.556Z,61.64
2018-03-29T01:29:12.489Z,61.35
2018-03-29T01:31:43.486Z,60.33
2018-03-29T01:34:14.476Z,57.85
2018-03-29T01:36:45.484Z,56.69
2018-03-29T01:39:16.503Z,55.50
2018-03-29T01:41:47.510Z,55.17
2018-03-29T01:44:18.480Z,55.13
2018-03-29T01:46:49.463Z,55.22
2018-03-29T01:49:20.451Z,55.44
2018-03-29T01:51:51.467Z,55.73
2018-03-29T01:54:22.451Z,55.77
2018-03-29T01:56:53.458Z,56.71
2018-03-29T01:59:24.443Z,57.21
2018-03-29T02:01:55.434Z,57.72
2018-03-29T02:04:26.387Z,57.42
2018-03-29T02:06:57.351Z,56.65
2018-03-29T02:09:28.382Z,56.51
2018-03-29T02:11:59.390Z,56.60
2018-03-29T02:14:30.395Z,57.02
2018-03-29T02:17:01.427Z,57.66
2018-03-29T02:19:32.425Z,58.03
2018-03-29T02:22:03.411Z,58.68
2018-03-29T02:24:38.403Z,58.80
2018-03-29T02:27:09.426Z,58.63
2018-03-29T02:29:40.387Z,58.55
2018-03-29T02:32:11.449Z,58.02
2018-03-29T02:34:42.454Z,58.39
2018-03-29T02:37:13.518Z,57.47
2018-03-29T02:39:44.483Z,57.40
2018-03-29T02:42:15.456Z,57.39
2018-03-29T02:44:46.437Z,57.42
2018-03-29T02:47:17.438Z,58.01
2018-03-29T02:49:48.420Z,57.70
2018-03-29T02:52:19.376Z,58.17
2018-03-29T02:54:50.343Z,58.83
2018-03-29T02:57:21.371Z,59.08
2018-03-29T02:59:52.379Z,59.31
2018-03-29T03:02:23.405Z,59.97
2018-03-29T03:04:54.398Z,60.69
2018-03-29T03:07:25.404Z,60.98
2018-03-29T03:09:56.387Z,61.50
2018-03-29T03:12:27.347Z,61.81
2018-03-29T03:14:58.307Z,62.08
2018-03-29T03:17:36.332Z,62.29
2018-03-29T03:20:07.350Z,62.59
2018-03-29T03:22:38.300Z,62.67
2018-03-29T03:25:09.268Z,62.63
2018-03-29T03:27:40.251Z,62.84
2018-03-29T03:30:11.276Z,63.50
2018-03-29T03:32:42.307Z,63.41
2018-03-29T03:35:13.273Z,63.69
2018-03-29T03:37:44.254Z,63.77
2018-03-29T03:40:15.239Z,63.95
2018-03-29T03:42:46.257Z,64.23
2018-03-29T03:45:17.265Z,64.30
2018-03-29T03:47:48.235Z,63.98
2018-03-29T03:50:19.230Z,63.74
2018-03-29T03:52:50.241Z,63.59
2018-03-29T03:55:21.217Z,63.43
2018-03-29T03:57:52.227Z,63.22
2018-03-29T04:00:23.213Z,62.92
2018-03-29T04:02:54.204Z,62.68
2018-03-29T04:05:25.185Z,62.05
2018-03-29T04:07:56.180Z,61.37
2018-03-29T04:10:27.183Z,60.88
2018-03-29T04:12:58.146Z,60.55
2018-03-29T04:15:29.119Z,60.58
2018-03-29T04:18:00.052Z,60.79
2018-03-29T04:20:31.080Z,60.58
2018-03-29T04:23:02.094Z,60.73
2018-03-29T04:25:33.093Z,60.58
2018-03-29T04:28:04.125Z,60.83
2018-03-29T04:30:35.117Z,59.79
2018-03-29T04:33:06.109Z,58.48
2018-03-29T04:35:37.125Z,58.33
2018-03-29T04:38:08.103Z,57.40
2018-03-29T04:40:39.080Z,57.65
2018-03-29T04:43:10.076Z,57.41
2018-03-29T04:45:41.095Z,57.20
2018-03-29T04:48:12.036Z,57.12
2018-03-29T04:50:43.045Z,56.95
2018-03-29T04:53:13.976Z,57.17
2018-03-29T04:55:44.994Z,57.05
2018-03-29T04:58:16.025Z,57.50
2018-03-29T05:00:47.030Z,57.49
2018-03-29T05:03:18.046Z,57.81
2018-03-29T05:05:49.077Z,57.76
2018-03-29T05:08:20.093Z,57.54
2018-03-29T05:10:51.078Z,57.06
2018-03-29T05:13:22.071Z,57.03
2018-03-29T05:15:53.068Z,56.33
2018-03-29T05:18:24.033Z,56.05
2018-03-29T05:20:55.017Z,55.78
2018-03-29T05:23:25.989Z,55.66
2018-03-29T05:26:03.098Z,55.58
2018-03-29T05:28:34.051Z,55.41
2018-03-29T05:31:05.032Z,55.53
2018-03-29T05:33:36.000Z,55.41
2018-03-29T05:36:06.975Z,55.27
2018-03-29T05:38:37.949Z,55.37
2018-03-29T05:41:08.950Z,55.44
2018-03-29T05:43:39.935Z,55.25
2018-03-29T05:46:10.907Z,55.13
2018-03-29T05:48:41.901Z,54.89
2018-03-29T05:51:12.879Z,54.88
2018-03-29T05:53:43.884Z,54.72
2018-03-29T05:56:14.877Z,54.78
2018-03-29T05:58:45.848Z,54.66
2018-03-29T06:01:16.836Z,54.62
2018-03-29T06:03:47.785Z,54.19
2018-03-29T06:06:18.773Z,54.28
2018-03-29T06:08:49.772Z,54.05
2018-03-29T06:11:20.779Z,53.41
2018-03-29T06:13:57.968Z,53.27
2018-03-29T06:16:29.005Z,53.17
2018-03-29T06:19:06.057Z,53.11
2018-03-29T06:21:37.038Z,52.77
2018-03-29T06:24:08.138Z,52.78
2018-03-29T06:26:39.146Z,52.47
2018-03-29T06:29:10.095Z,52.23
2018-03-29T06:31:41.055Z,51.96
2018-03-29T06:34:12.031Z,51.42
2018-03-29T06:36:43.029Z,51.09
2018-03-29T06:39:14.032Z,50.95
2018-03-29T06:41:45.038Z,50.68
2018-03-29T06:44:16.032Z,50.32
2018-03-29T06:46:47.033Z,50.07
2018-03-29T06:49:18.015Z,48.87
2018-03-29T06:51:49.012Z,48.15
2018-03-29T06:54:20.000Z,48.05
2018-03-29T06:56:51.054Z,47.81
2018-03-29T06:59:21.999Z,47.10
2018-03-29T07:01:52.988Z,46.59
2018-03-29T07:04:23.976Z,46.03
2018-03-29T07:06:55.025Z,45.41
2018-03-29T07:09:26.022Z,44.59
2018-03-29T07:11:57.012Z,43.74
2018-03-29T07:14:28.005Z,44.12
2018-03-29T07:16:59.024Z,43.92
2018-03-29T07:19:30.012Z,37.28
2018-03-29T07:22:01.013Z,26.87
2018-03-29T07:24:32.015Z,17.89
2018-03-29T07:27:03.052Z,15.52
2018-03-29T07:29:34.057Z,12.87
2018-03-29T07:32:05.018Z,11.07
2018-03-29T07:34:36.007Z,9.47
2018-03-29T07:37:07.013Z,8.58
2018-03-29T07:39:38.027Z,7.83
2018-03-29T07:42:08.991Z,7.12
2018-03-29T07:44:39.968Z,7.17
2018-03-29T07:47:11.003Z,6.57
2018-03-29T07:49:41.940Z,7.95
2018-03-29T07:52:12.906Z,8.18
2018-03-29T07:54:43.894Z,7.13
2018-03-29T07:57:14.859Z,5.99
2018-03-29T07:59:45.831Z,6.97
2018-03-29T08:02:16.802Z,8.40
2018-03-29T08:04:47.776Z,9.54
2018-03-29T08:07:18.800Z,10.36
2018-03-29T08:09:49.755Z,12.09
2018-03-29T08:12:20.770Z,14.14
2018-03-29T08:14:51.744Z,15.75
2018-03-29T08:17:22.751Z,16.97
2018-03-29T08:19:53.766Z,17.70
2018-03-29T08:22:24.778Z,18.20
2018-03-29T08:24:55.792Z,18.25
2018-03-29T08:27:26.832Z,18.56
2018-03-29T08:29:57.825Z,18.69
2018-03-29T08:32:28.874Z,18.80
2018-03-29T08:34:59.846Z,18.39
2018-03-29T08:37:30.829Z,16.33
2018-03-29T08:40:01.833Z,15.77
2018-03-29T08:42:32.816Z,14.43
2018-03-29T08:45:03.809Z,14.02
2018-03-29T08:47:34.788Z,14.95
2018-03-29T08:50:05.783Z,16.46
2018-03-29T08:52:36.747Z,17.51
2018-03-29T08:55:07.764Z,17.71
2018-03-29T08:57:38.806Z,16.65
2018-03-29T09:00:09.804Z,15.93
2018-03-29T09:02:40.825Z,13.37
2018-03-29T09:05:11.821Z,12.78
2018-03-29T09:07:42.769Z,13.95
2018-03-29T09:10:13.819Z,12.87
2018-03-29T09:12:44.777Z,12.56
2018-03-29T09:15:15.797Z,12.31
2018-03-29T09:17:46.769Z,13.68
2018-03-29T09:20:17.760Z,14.95
2018-03-29T09:22:48.811Z,15.56
2018-03-29T09:25:19.808Z,16.15
2018-03-29T09:27:50.809Z,15.71
2018-03-29T09:30:21.961Z,14.61
2018-03-29T09:32:52.953Z,16.08
2018-03-29T09:35:23.919Z,16.09
2018-03-29T09:37:54.915Z,14.54
2018-03-29T09:40:32.890Z,15.96
2018-03-29T09:43:03.918Z,17.48
2018-03-29T09:45:34.892Z,18.08
2018-03-29T09:48:05.934Z,17.99
2018-03-29T09:50:36.892Z,19.40
2018-03-29T09:53:07.874Z,20.70
2018-03-29T09:55:38.851Z,21.58
2018-03-29T09:58:09.844Z,22.06
2018-03-29T10:00:40.863Z,21.07
2018-03-29T10:03:11.952Z,20.26
2018-03-29T10:05:42.899Z,19.52
2018-03-29T10:08:13.904Z,19.00
2018-03-29T10:10:44.885Z,18.43
2018-03-29T10:13:15.881Z,17.54
2018-03-29T10:15:46.831Z,16.28
2018-03-29T10:18:17.843Z,15.87
2018-03-29T10:20:48.841Z,15.69
2018-03-29T10:23:19.816Z,15.95
2018-03-29T10:25:50.809Z,15.91
2018-03-29T10:28:21.801Z,15.47
2018-03-29T10:30:52.766Z,14.87
2018-03-29T10:33:23.760Z,14.64
2018-03-29T10:35:54.723Z,14.12
2018-03-29T10:38:25.748Z,12.32
2018-03-29T10:40:56.782Z,10.64
2018-03-29T10:43:27.777Z,9.83
2018-03-29T10:45:58.772Z,10.33
2018-03-29T10:48:29.789Z,10.34
2018-03-29T10:51:00.762Z,11.33
2018-03-29T10:53:31.756Z,12.32
2018-03-29T10:56:02.818Z,12.28
2018-03-29T10:58:33.817Z,11.54
2018-03-29T11:01:04.840Z,10.57
2018-03-29T11:03:35.813Z,10.14
2018-03-29T11:06:06.783Z,10.13
2018-03-29T11:08:37.797Z,10.58
2018-03-29T11:11:08.809Z,11.37
2018-03-29T11:13:39.819Z,12.52
2018-03-29T11:16:10.821Z,14.05
2018-03-29T11:18:41.836Z,14.66
2018-03-29T11:21:12.795Z,15.31
2018-03-29T11:23:43.730Z,15.89
2018-03-29T11:26:14.709Z,16.43
2018-03-29T11:28:45.704Z,17.76
2018-03-29T11:31:16.732Z,18.54
2018-03-29T11:33:47.713Z,18.82
2018-03-29T11:36:18.684Z,18.91
2018-03-29T11:38:49.718Z,19.36
2018-03-29T11:41:20.680Z,19.38
2018-03-29T11:43:51.665Z,19.64
2018-03-29T11:46:22.615Z,20.25
2018-03-29T11:48:53.571Z,20.72
2018-03-29T11:51:24.520Z,21.28
2018-03-29T11:53:55.525Z,21.70
2018-03-29T11:56:26.461Z,21.62
2018-03-29T11:58:57.495Z,21.45
2018-03-29T12:01:28.485Z,21.61
2018-03-29T12:03:59.469Z,21.64
2018-03-29T12:06:30.415Z,20.88
2018-03-29T12:09:01.392Z,20.76
2018-03-29T12:11:32.361Z,21.08
2018-03-29T12:14:03.361Z,21.59
2018-03-29T12:16:34.351Z,22.19
2018-03-29T12:19:05.337Z,22.83
2018-03-29T12:21:36.346Z,22.72
2018-03-29T12:24:07.288Z,21.52
2018-03-29T12:26:38.283Z,21.45
2018-03-29T12:29:09.232Z,21.47
2018-03-29T12:31:40.217Z,21.76
2018-03-29T12:34:11.179Z,21.57
2018-03-29T12:36:42.158Z,21.67
2018-03-29T12:39:13.168Z,21.84
2018-03-29T12:41:44.128Z,21.56
2018-03-29T12:44:15.109Z,21.25
2018-03-29T12:46:46.050Z,21.34
2018-03-29T12:49:17.054Z,20.77
2018-03-29T12:51:48.039Z,20.14
2018-03-29T12:54:19.037Z,19.42
2018-03-29T12:57:02.404Z,19.40
2018-03-29T12:59:33.410Z,20.35
2018-03-29T13:02:04.416Z,21.31
2018-03-29T13:04:35.387Z,22.16
2018-03-29T13:07:06.383Z,22.44
2018-03-29T13:09:37.375Z,22.28
2018-03-29T13:12:08.426Z,21.79
2018-03-29T13:14:39.428Z,21.06
2018-03-29T13:17:10.427Z,20.34
2018-03-29T13:19:41.421Z,21.28
2018-03-29T13:22:12.386Z,21.96
2018-03-29T13:24:43.360Z,22.06
2018-03-29T13:27:14.336Z,22.27
2018-03-29T13:29:45.300Z,22.49
2018-03-29T13:32:16.293Z,22.94
2018-03-29T13:34:47.302Z,22.95
2018-03-29T13:37:18.252Z,22.65
2018-03-29T13:39:49.219Z,22.61
2018-03-29T13:42:20.230Z,21.37
2018-03-29T13:44:51.257Z,20.94
2018-03-29T13:47:22.278Z,21.08
2018-03-29T13:49:53.240Z,21.86
2018-03-29T13:52:24.227Z,22.65
2018-03-29T13:54:55.233Z,22.53
2018-03-29T13:57:26.215Z,23.71
2018-03-29T13:59:57.272Z,24.40
2018-03-29T14:02:28.260Z,24.55
2018-03-29T14:04:59.245Z,24.13
2018-03-29T14:07:30.220Z,23.69
2018-03-29T14:10:01.248Z,22.21
2018-03-29T14:12:32.285Z,21.94
2018-03-29T14:15:03.267Z,21.76
2018-03-29T14:17:34.235Z,21.37
2018-03-29T14:20:05.268Z,21.45
2018-03-29T14:22:36.237Z,22.09
2018-03-29T14:25:07.250Z,22.36
2018-03-29T14:27:38.253Z,22.61
2018-03-29T14:30:09.318Z,22.80
2018-03-29T14:32:40.323Z,22.45
2018-03-29T14:35:11.316Z,22.34
2018-03-29T14:37:42.382Z,22.24
2018-03-29T14:40:13.369Z,22.14
2018-03-29T14:42:44.427Z,22.18
2018-03-29T14:45:15.449Z,22.55
2018-03-29T14:47:46.560Z,22.70
2018-03-29T14:50:17.574Z,23.45
2018-03-29T14:52:48.628Z,24.44
2018-03-29T14:55:19.638Z,24.88
2018-03-29T14:57:50.623Z,24.67
2018-03-29T15:00:21.571Z,25.07
2018-03-29T15:02:52.527Z,25.46
2018-03-29T15:05:23.596Z,25.73
2018-03-29T15:07:54.638Z,25.96
2018-03-29T15:10:25.664Z,25.95
2018-03-29T15:12:56.655Z,26.35
2018-03-29T15:15:27.641Z,26.35
2018-03-29T15:17:58.619Z,26.44
2018-03-29T15:20:29.599Z,26.65
2018-03-29T15:23:00.631Z,26.16
2018-03-29T15:25:31.625Z,25.75
2018-03-29T15:28:03.369Z,25.20
2018-03-29T15:30:34.432Z,25.33
2018-03-29T15:33:05.417Z,25.39
2018-03-29T15:35:36.413Z,25.58
2018-03-29T15:38:07.365Z,25.54
2018-03-29T15:40:38.397Z,25.73
2018-03-29T15:43:09.406Z,25.83
2018-03-29T15:45:40.489Z,25.84
2018-03-29T15:48:11.538Z,25.97
2018-03-29T15:50:42.563Z,26.19
2018-03-29T15:53:13.554Z,26.28
2018-03-29T15:55:44.550Z,26.54
2018-03-29T15:58:15.527Z,26.79
2018-03-29T16:00:46.542Z,27.01
2018-03-29T16:03:18.961Z,27.22
2018-03-29T16:05:49.937Z,27.51
2018-03-29T16:08:20.939Z,27.73
2018-03-29T16:10:51.966Z,28.02
2018-03-29T16:13:22.989Z,28.08
2018-03-29T16:15:53.959Z,28.41
2018-03-29T16:18:25.011Z,28.26
2018-03-29T16:20:56.018Z,28.22
2018-03-29T16:23:27.045Z,28.13
2018-03-29T16:25:58.026Z,27.98
2018-03-29T16:28:29.028Z,27.59
2018-03-29T16:31:00.022Z,27.43
2018-03-29T16:33:31.018Z,27.47
2018-03-29T16:36:02.027Z,27.48
2018-03-29T16:38:33.015Z,27.30
2018-03-29T16:41:04.029Z,27.63
2018-03-29T16:43:34.998Z,27.70
2018-03-29T16:46:06.000Z,27.92
2018-03-29T16:48:37.081Z,28.08
2018-03-29T16:51:08.557Z,28.44
2018-03-29T16:53:39.524Z,28.70
2018-03-29T16:56:10.510Z,29.05
2018-03-29T16:58:41.508Z,29.33
2018-03-29T17:01:12.527Z,29.73
2018-03-29T17:03:43.539Z,30.30
2018-03-29T17:06:14.544Z,30.40
2018-03-29T17:08:52.548Z,30.67
2018-03-29T17:11:23.541Z,30.74
2018-03-29T17:13:54.558Z,30.87
2018-03-29T17:16:25.549Z,30.99
2018-03-29T17:18:56.517Z,31.23
2018-03-29T17:21:27.560Z,31.12
2018-03-29T17:23:59.454Z,31.41
2018-03-29T17:26:30.466Z,31.62
2018-03-29T17:29:01.542Z,31.73
2018-03-29T17:31:32.669Z,31.81
2018-03-29T17:34:03.714Z,31.94
2018-03-29T17:36:34.738Z,32.56
2018-03-29T17:39:05.795Z,32.51
2018-03-29T17:41:36.838Z,32.88
2018-03-29T17:44:07.816Z,32.66
2018-03-29T17:46:38.826Z,32.41
2018-03-29T17:49:09.809Z,32.50
2018-03-29T17:51:40.795Z,33.01
2018-03-29T17:54:11.796Z,33.21
2018-03-29T17:56:42.887Z,35.38
2018-03-29T17:59:14.877Z,36.04
2018-03-29T18:01:45.889Z,35.92
2018-03-29T18:04:16.878Z,36.21
2018-03-29T18:06:47.905Z,36.73
2018-03-29T18:09:18.943Z,36.84
2018-03-29T18:11:49.952Z,36.95
2018-03-29T18:14:20.991Z,38.05
2018-03-29T18:16:51.999Z,37.85
2018-03-29T18:19:22.992Z,38.07
2018-03-29T18:21:54.011Z,38.55
2018-03-29T18:24:25.026Z,38.92
2018-03-29T18:26:56.033Z,39.67
2018-03-29T18:29:27.686Z,40.25
2018-03-29T18:31:58.724Z,40.96
2018-03-29T18:34:29.822Z,41.90
2018-03-29T18:37:00.873Z,42.00
2018-03-29T18:39:31.831Z,41.42
2018-03-29T18:42:02.856Z,41.78
2018-03-29T18:44:33.856Z,41.35
2018-03-29T18:47:04.867Z,40.15
2018-03-29T18:49:35.847Z,39.98
2018-03-29T18:52:06.834Z,39.34
2018-03-29T18:54:37.809Z,39.41
2018-03-29T18:57:08.811Z,39.21
2018-03-29T18:59:39.857Z,38.51
2018-03-29T19:02:10.849Z,38.31
2018-03-29T19:04:41.849Z,38.27
2018-03-29T19:07:12.845Z,38.38
2018-03-29T19:09:43.876Z,38.61
2018-03-29T19:12:14.881Z,38.36
2018-03-29T19:14:45.889Z,38.39
2018-03-29T19:17:16.875Z,38.69
2018-03-29T19:19:47.866Z,38.79
2018-03-29T19:22:19.687Z,39.56
2018-03-29T19:24:50.716Z,40.43
2018-03-29T19:27:21.696Z,40.27
2018-03-29T19:29:52.698Z,39.44
2018-03-29T19:32:23.678Z,39.25
2018-03-29T19:34:54.642Z,39.65
2018-03-29T19:37:25.674Z,39.29
2018-03-29T19:39:56.709Z,39.02
2018-03-29T19:42:27.673Z,38.84
2018-03-29T19:44:58.619Z,39.39
2018-03-29T19:47:29.610Z,42.16
2018-03-29T19:50:00.605Z,42.91
2018-03-29T19:52:31.598Z,42.92
2018-03-29T19:55:02.659Z,42.84
2018-03-29T19:57:33.672Z,42.54
2018-03-29T20:00:04.740Z,42.53
2018-03-29T20:02:35.734Z,43.13
2018-03-29T20:05:06.753Z,43.31
2018-03-29T20:07:37.815Z,42.41
2018-03-29T20:10:08.803Z,42.43
2018-03-29T20:12:39.843Z,42.28
2018-03-29T20:15:10.844Z,42.35
2018-03-29T20:17:41.824Z,42.89
2018-03-29T20:20:13.786Z,42.97
2018-03-29T20:22:44.797Z,42.92
2018-03-29T20:25:15.791Z,43.07
2018-03-29T20:27:46.792Z,43.87
2018-03-29T20:30:17.775Z,44.96
2018-03-29T20:32:48.766Z,45.55
2018-03-29T20:35:19.734Z,45.81
2018-03-29T20:37:50.687Z,46.03
2018-03-29T20:40:21.688Z,46.25
2018-03-29T20:42:52.702Z,46.77
2018-03-29T20:45:23.706Z,47.28
2018-03-29T20:47:54.700Z,47.60
2018-03-29T20:50:25.699Z,48.13
2018-03-29T20:52:56.712Z,48.60
2018-03-29T20:55:27.758Z,48.93
2018-03-29T20:57:58.749Z,50.07
2018-03-29T21:00:29.735Z,50.33
2018-03-29T21:03:00.721Z,50.56
2018-03-29T21:05:31.744Z,51.29
2018-03-29T21:08:02.761Z,51.47
2018-03-29T21:10:33.714Z,51.11
2018-03-29T21:13:04.672Z,51.04
2018-03-29T21:15:35.631Z,51.05
2018-03-29T21:18:06.661Z,51.10
2018-03-29T21:20:38.587Z,51.07
2018-03-29T21:23:09.625Z,51.46
2018-03-29T21:25:40.580Z,51.69
2018-03-29T21:28:11.592Z,51.90
2018-03-29T21:30:42.593Z,52.53
2018-03-29T21:33:13.624Z,53.29
2018-03-29T21:35:44.649Z,53.81
2018-03-29T21:38:15.638Z,53.51
2018-03-29T21:40:46.672Z,53.62
2018-03-29T21:43:17.692Z,53.63
2018-03-29T21:45:48.671Z,53.79
2018-03-29T21:48:19.665Z,54.07
2018-03-29T21:50:50.691Z,54.32
2018-03-29T21:53:21.664Z,54.35
2018-03-29T21:55:52.666Z,54.51
2018-03-29T21:58:23.633Z,54.37
2018-03-29T22:00:54.717Z,54.32
2018-03-29T22:03:25.701Z,54.85
2018-03-29T22:05:56.750Z,54.81
2018-03-29T22:08:27.769Z,55.13
2018-03-29T22:10:58.806Z,55.18
2018-03-29T22:13:29.857Z,55.50
2018-03-29T22:16:00.922Z,55.40
2018-03-29T22:18:31.950Z,55.86
2018-03-29T22:21:02.958Z,56.83
2018-03-29T22:23:33.949Z,58.01
2018-03-29T22:26:04.967Z,58.13
2018-03-29T22:28:35.952Z,58.29
2018-03-29T22:31:06.961Z,58.04
2018-03-29T22:33:38.009Z,57.86
2018-03-29T22:36:08.953Z,58.49
2018-03-29T22:38:39.958Z,58.25
2018-03-29T22:41:10.932Z,58.16
2018-03-29T22:43:41.920Z,58.15
2018-03-29T22:46:12.906Z,58.87
2018-03-29T22:48:43.917Z,58.37
2018-03-29T22:51:14.923Z,58.93
2018-03-29T22:53:45.969Z,59.80
2018-03-29T22:56:16.949Z,59.49
2018-03-29T22:58:47.903Z,59.51
2018-03-29T23:01:18.886Z,59.72
2018-03-29T23:03:49.893Z,59.71
2018-03-29T23:06:20.874Z,59.57
2018-03-29T23:08:51.868Z,59.79
2018-03-29T23:11:22.857Z,60.08
2018-03-29T23:13:53.811Z,59.75
2018-03-29T23:16:24.838Z,60.07
2018-03-29T23:18:55.825Z,60.25
2018-03-29T23:21:26.829Z,60.24
2018-03-29T23:23:57.801Z,60.77
2018-03-29T23:26:28.776Z,60.92
2018-03-29T23:28:59.750Z,60.79
2018-03-29T23:31:30.732Z,60.54
2018-03-29T23:34:01.728Z,60.40
2018-03-29T23:36:32.700Z,60.36
2018-03-29T23:39:03.690Z,60.45
2018-03-29T23:41:34.718Z,60.59
2018-03-29T23:44:05.814Z,60.32
2018-03-29T23:46:36.862Z,60.62
2018-03-29T23:49:07.880Z,60.68
2018-03-29T23:51:38.907Z,60.75
2018-03-29T23:54:09.885Z,60.80
2018-03-29T23:56:40.873Z,60.94
2018-03-29T23:59:11.888Z,61.02
